Time;durP1;ratioP1;P1;durP2;ratioP2;P2;SDS_P1;SDS_P2;PMS_P1;PMS_P2;Temp;Humidity;BMP_temperature;BMP_pressure;BME280_temperature;BME280_humidity;BME280_pressure;Samples;Min_cycle;Max_cycle;Signal;HPM_P1;HPM_P2
2023/02/24 00:02:00;;;;;;;22.88;5.90;;;7.20;81.20;;;;;;5038649;28;20463;-75
2023/02/24 00:04:30;;;;;;;23.87;7.50;;;7.10;76.40;;;;;;5042629;28;20402;-75
2023/02/24 00:06:56;;;;;;;28.02;7.32;;;7.10;78.30;;;;;;5036266;28;20399;-75
2023/02/24 00:09:25;;;;;;;32.33;8.77;;;7.00;77.00;;;;;;5029037;28;20633;-75
2023/02/24 00:11:56;;;;;;;35.00;9.00;;;6.90;79.70;;;;;;5015372;28;20407;-76
2023/02/24 00:14:23;;;;;;;33.17;8.60;;;7.00;78.60;;;;;;5015670;28;20477;-77
2023/02/24 00:16:50;;;;;;;38.00;8.35;;;7.10;77.70;;;;;;5022622;28;20494;-73
2023/02/24 00:19:18;;;;;;;31.63;8.88;;;7.10;77.30;;;;;;5037954;28;20383;-75
2023/02/24 00:21:44;;;;;;;37.05;8.93;;;7.00;79.30;;;;;;5035525;28;20399;-74
2023/02/24 00:24:10;;;;;;;30.95;8.85;;;6.90;80.40;;;;;;5051219;22;20552;-79
2023/02/24 00:26:37;;;;;;;32.40;8.98;;;7.00;78.60;;;;;;5036681;28;20387;-79
2023/02/24 00:29:05;;;;;;;38.70;8.87;;;7.00;79.40;;;;;;5035970;28;20387;-79
2023/02/24 00:31:31;;;;;;;39.80;9.43;;;7.10;78.40;;;;;;5038417;28;20903;-79
2023/02/24 00:34:01;;;;;;;37.30;8.50;;;7.20;75.80;;;;;;5049356;28;20399;-78
2023/02/24 00:36:28;;;;;;;37.85;9.73;;;7.10;75.10;;;;;;5027846;28;20391;-79
2023/02/24 00:38:56;;;;;;;44.92;8.90;;;7.10;76.30;;;;;;5025582;28;20830;-79
2023/02/24 00:41:28;;;;;;;37.38;8.65;;;7.10;76.70;;;;;;5047907;28;20403;-80
2023/02/24 00:44:04;;;;;;;41.05;9.30;;;7.00;77.30;;;;;;5039710;28;20425;-80
2023/02/24 00:46:34;;;;;;;34.45;8.65;;;6.90;77.80;;;;;;5047404;28;20400;-79
2023/02/24 00:49:04;;;;;;;34.35;8.60;;;6.90;79.50;;;;;;5041145;28;20410;-78
2023/02/24 00:51:35;;;;;;;39.30;8.23;;;6.90;81.30;;;;;;5042584;28;20500;-79
2023/02/24 00:54:02;;;;;;;43.65;9.23;;;6.80;79.50;;;;;;5050760;28;20730;-79
2023/02/24 00:56:28;;;;;;;39.47;8.95;;;6.90;77.20;;;;;;5060165;28;20477;-80
2023/02/24 00:58:56;;;;;;;40.07;8.90;;;6.90;77.50;;;;;;5066266;28;20406;-80
2023/02/24 01:01:25;;;;;;;46.83;9.88;;;6.80;77.70;;;;;;5063981;28;20420;-80
2023/02/24 01:03:54;;;;;;;44.72;10.05;;;6.60;80.70;;;;;;5059580;28;20469;-80
2023/02/24 01:06:22;;;;;;;36.58;8.30;;;6.60;82.70;;;;;;5059083;28;20382;-80
2023/02/24 01:08:50;;;;;;;39.70;8.00;;;6.60;81.30;;;;;;5059441;28;20735;-80
2023/02/24 01:14:07;;;;;;;39.33;8.23;;;6.60;81.10;;;;;;5061099;28;20385;-79
2023/02/24 01:16:33;;;;;;;39.38;8.70;;;6.60;81.10;;;;;;5043364;28;20411;-80
2023/02/24 01:19:00;;;;;;;42.85;7.70;;;6.60;78.70;;;;;;5060997;28;20409;-79
2023/02/24 01:21:25;;;;;;;40.75;8.20;;;6.70;79.50;;;;;;5042748;28;20757;-79
2023/02/24 01:23:51;;;;;;;39.50;8.80;;;6.70;77.90;;;;;;5059723;28;20389;-79
2023/02/24 01:26:17;;;;;;;38.50;6.70;;;6.70;79.60;;;;;;5059553;28;20542;-80
2023/02/24 01:28:47;;;;;;;41.03;8.15;;;6.70;74.80;;;;;;5060605;28;20392;-80
2023/02/24 01:31:19;;;;;;;31.27;6.28;;;6.60;73.60;;;;;;5060402;28;20397;-80
2023/02/24 01:33:46;;;;;;;36.70;6.97;;;6.50;75.40;;;;;;5070796;28;21086;-79
2023/02/24 01:36:18;;;;;;;38.55;7.60;;;6.40;77.70;;;;;;5072333;28;20483;-79
2023/02/24 01:38:44;;;;;;;34.25;7.15;;;6.50;76.60;;;;;;5069750;28;20464;-79
2023/02/24 01:41:15;;;;;;;42.80;7.85;;;6.50;75.90;;;;;;5057512;28;20386;-79
2023/02/24 01:44:00;;;;;;;35.13;7.32;;;6.60;75.80;;;;;;5057699;28;20484;-79
2023/02/24 01:46:27;;;;;;;35.53;7.30;;;6.60;75.80;;;;;;5039431;28;20386;-79
2023/02/24 01:49:07;;;;;;;35.23;7.20;;;6.60;76.30;;;;;;5057085;28;20396;-79
2023/02/24 01:51:38;;;;;;;40.55;6.82;;;6.50;77.90;;;;;;5059160;28;20397;-79
2023/02/24 01:54:07;;;;;;;39.90;8.15;;;6.50;77.30;;;;;;5057888;28;20760;-79
2023/02/24 01:56:33;;;;;;;41.28;7.43;;;6.50;78.60;;;;;;5058858;28;20416;-79
2023/02/24 01:59:01;;;;;;;39.90;7.67;;;6.40;78.90;;;;;;5057609;28;20865;-79
2023/02/24 02:01:27;;;;;;;46.03;7.43;;;6.40;79.70;;;;;;5057339;28;20389;-79
2023/02/24 02:04:02;;;;;;;40.63;7.20;;;6.30;77.80;;;;;;5057776;28;20392;-80
2023/02/24 02:06:29;;;;;;;38.58;6.25;;;6.20;77.70;;;;;;5062960;28;20789;-79
2023/02/24 02:08:56;;;;;;;36.43;6.67;;;6.10;76.90;;;;;;5066014;28;20401;-79
2023/02/24 02:11:21;;;;;;;36.83;7.25;;;6.10;77.70;;;;;;5060423;28;20401;-79
2023/02/24 02:13:49;;;;;;;36.90;7.57;;;6.00;78.00;;;;;;5064117;28;20758;-79
2023/02/24 02:16:41;;;;;;;37.40;8.20;;;6.00;79.50;;;;;;5047657;28;20378;-79
2023/02/24 02:19:32;;;;;;;36.92;6.80;;;6.00;80.60;;;;;;5050896;28;20381;-79
2023/02/24 02:22:04;;;;;;;44.30;7.90;;;6.10;77.80;;;;;;5067082;28;20386;-79
2023/02/24 02:25:11;;;;;;;37.72;7.15;;;6.10;77.40;;;;;;5048517;28;20401;-79
2023/02/24 02:27:56;;;;;;;35.28;7.93;;;6.00;78.80;;;;;;4995201;28;20420;-79
2023/02/24 02:30:43;;;;;;;34.30;7.25;;;6.00;80.00;;;;;;5045437;28;20432;-80
2023/02/24 02:33:55;;;;;;;44.28;7.38;;;6.00;78.00;;;;;;5057985;28;20385;-80
2023/02/24 02:36:26;;;;;;;34.40;7.40;;;5.90;80.10;;;;;;5042518;28;20522;-80
2023/02/24 02:39:03;;;;;;;46.13;9.25;;;5.90;81.10;;;;;;5055748;28;20447;-80
2023/02/24 02:41:54;;;;;;;38.35;8.15;;;6.00;81.80;;;;;;5072122;28;20397;-81
2023/02/24 02:44:31;;;;;;;32.38;8.15;;;6.00;78.40;;;;;;5075040;28;20376;-79
2023/02/24 02:47:13;;;;;;;37.15;8.32;;;6.10;77.40;;;;;;5075924;28;20416;-79
2023/02/24 02:49:48;;;;;;;31.05;7.72;;;6.00;77.30;;;;;;5060494;28;20385;-79
2023/02/24 02:52:56;;;;;;;44.17;8.30;;;6.10;75.70;;;;;;5062305;28;20425;-79
2023/02/24 02:55:45;;;;;;;33.45;6.97;;;6.10;76.10;;;;;;5061318;28;20428;-79
2023/02/24 02:58:22;;;;;;;43.85;8.70;;;6.10;75.00;;;;;;5045049;28;20386;-79
2023/02/24 03:01:02;;;;;;;30.75;6.57;;;6.10;75.40;;;;;;5059272;28;20453;-79
2023/02/24 03:03:35;;;;;;;35.17;7.07;;;6.10;74.60;;;;;;5052396;28;20416;-80
2023/02/24 03:06:25;;;;;;;38.13;8.38;;;6.00;74.60;;;;;;5053025;28;20396;-79
2023/02/24 03:08:59;;;;;;;31.52;6.82;;;6.10;75.70;;;;;;5052544;28;20447;-79
2023/02/24 03:11:25;;;;;;;34.67;7.45;;;6.00;74.20;;;;;;5053324;28;20385;-79
2023/02/24 03:13:55;;;;;;;27.60;6.30;;;6.00;75.00;;;;;;5053784;28;20388;-79
2023/02/24 03:16:23;;;;;;;30.03;6.67;;;5.90;73.70;;;;;;5037293;28;20382;-79
2023/02/24 03:18:57;;;;;;;33.47;6.68;;;5.90;73.50;;;;;;5059825;28;20385;-79
2023/02/24 03:21:32;;;;;;;32.03;6.60;;;5.80;72.80;;;;;;5072536;28;20385;-79
2023/02/24 03:24:00;;;;;;;27.55;6.72;;;5.90;72.00;;;;;;5059615;28;20412;-79
2023/02/24 03:26:44;;;;;;;30.30;6.43;;;5.80;72.20;;;;;;5054786;28;20400;-79
2023/02/24 03:29:51;;;;;;;29.40;7.10;;;5.80;72.00;;;;;;5038584;28;20397;-80
2023/02/24 03:32:31;;;;;;;28.85;7.30;;;5.80;70.60;;;;;;4989572;28;20417;-81
2023/02/24 03:35:00;;;;;;;31.73;7.10;;;5.80;71.30;;;;;;4985554;28;20518;-79
2023/02/24 03:37:28;;;;;;;29.55;7.22;;;5.80;71.10;;;;;;5035996;28;20424;-81
2023/02/24 03:40:06;;;;;;;32.73;7.47;;;5.80;70.30;;;;;;5075760;28;20479;-81
2023/02/24 03:42:33;;;;;;;25.92;8.00;;;5.90;70.80;;;;;;5050791;28;20393;-80
2023/02/24 03:45:05;;;;;;;37.83;8.60;;;5.90;70.90;;;;;;5049109;28;20404;-80
2023/02/24 03:47:31;;;;;;;40.53;9.60;;;5.90;71.90;;;;;;5068637;28;20462;-80
2023/02/24 03:49:57;;;;;;;26.75;7.30;;;6.00;72.00;;;;;;5067824;28;20389;-80
2023/02/24 03:52:56;;;;;;;42.28;8.57;;;6.00;70.90;;;;;;5062195;28;20384;-80
2023/02/24 03:55:40;;;;;;;31.42;7.00;;;6.00;71.20;;;;;;5056750;28;20449;-80
2023/02/24 03:58:24;;;;;;;33.67;7.25;;;6.00;69.50;;;;;;5056276;28;20381;-79
2023/02/24 04:01:09;;;;;;;32.83;8.15;;;6.10;68.20;;;;;;5054386;28;20453;-80
2023/02/24 04:03:38;;;;;;;31.42;7.38;;;6.00;69.40;;;;;;5056274;28;20389;-80
2023/02/24 04:06:27;;;;;;;30.80;7.70;;;6.00;68.40;;;;;;5055639;28;20393;-80
2023/02/24 04:09:12;;;;;;;28.92;6.90;;;6.00;68.60;;;;;;5056075;28;20890;-80
2023/02/24 04:11:51;;;;;;;34.85;7.20;;;5.90;66.30;;;;;;5055049;28;20538;-80
2023/02/24 04:14:26;;;;;;;28.90;6.35;;;5.90;66.70;;;;;;5054439;28;20434;-80
2023/02/24 04:16:59;;;;;;;31.67;6.35;;;5.90;64.90;;;;;;5054841;28;20377;-80
2023/02/24 04:19:30;;;;;;;39.65;6.50;;;5.90;66.10;;;;;;5052463;28;20435;-79
2023/02/24 04:21:56;;;;;;;34.72;5.60;;;5.90;64.30;;;;;;5043437;28;20413;-80
2023/02/24 04:24:27;;;;;;;29.90;5.90;;;5.90;65.70;;;;;;5030742;28;20400;-80
2023/02/24 04:26:57;;;;;;;27.75;6.15;;;5.80;66.90;;;;;;4998515;28;20404;-79
2023/02/24 04:29:27;;;;;;;32.70;7.22;;;5.90;66.00;;;;;;5023496;28;20463;-79
2023/02/24 04:31:59;;;;;;;32.15;7.07;;;5.90;67.00;;;;;;5043097;28;20413;-79
2023/02/24 04:34:27;;;;;;;29.80;7.25;;;5.80;66.80;;;;;;5037823;28;20403;-79
2023/02/24 04:36:53;;;;;;;29.02;8.00;;;5.80;67.60;;;;;;5033943;28;20390;-78
2023/02/24 04:39:22;;;;;;;29.13;6.87;;;5.80;68.20;;;;;;5036147;28;20399;-78
2023/02/24 04:41:48;;;;;;;36.65;7.65;;;5.80;68.40;;;;;;5026608;28;20460;-78
2023/02/24 04:44:19;;;;;;;30.98;6.72;;;5.70;68.60;;;;;;5042046;28;20391;-79
2023/02/24 04:46:46;;;;;;;29.45;7.53;;;5.70;70.80;;;;;;5036377;28;20406;-78
2023/02/24 04:49:12;;;;;;;31.30;6.75;;;5.70;71.20;;;;;;5052458;28;20390;-76
2023/02/24 04:51:42;;;;;;;38.00;7.23;;;5.60;69.90;;;;;;5026258;28;20459;-79
2023/02/24 04:54:16;;;;;;;30.10;6.47;;;5.60;69.90;;;;;;5038758;28;20395;-78
2023/02/24 04:56:43;;;;;;;31.47;6.63;;;5.60;70.40;;;;;;5042804;28;20834;-79
2023/02/24 04:59:09;;;;;;;25.40;6.45;;;5.60;71.00;;;;;;5038387;28;21084;-77
2023/02/24 05:01:39;;;;;;;36.30;7.03;;;5.50;73.70;;;;;;5021086;28;21040;-77
2023/02/24 05:04:06;;;;;;;30.77;6.82;;;5.40;74.00;;;;;;5038430;28;21254;-77
2023/02/24 05:06:32;;;;;;;29.20;6.85;;;5.40;75.00;;;;;;5035957;28;20391;-77
2023/02/24 05:08:57;;;;;;;22.70;5.80;;;5.30;74.70;;;;;;5037598;28;21012;-78
2023/02/24 05:11:26;;;;;;;24.08;4.63;;;5.50;71.30;;;;;;5036184;28;20411;-77
2023/02/24 05:13:52;;;;;;;26.73;5.50;;;5.70;67.00;;;;;;5031671;28;20406;-76
2023/02/24 05:16:19;;;;;;;25.15;5.90;;;5.60;64.60;;;;;;5014787;28;20877;-77
2023/02/24 05:18:44;;;;;;;28.38;5.15;;;5.60;65.40;;;;;;5011992;28;20420;-78
2023/02/24 05:23:58;;;;;;;22.92;4.78;;;5.50;64.60;;;;;;5055468;28;20493;-78
2023/02/24 05:26:24;;;;;;;22.02;5.82;;;5.50;64.30;;;;;;5057759;28;20385;-78
2023/02/24 05:28:53;;;;;;;26.88;5.60;;;5.50;63.70;;;;;;5037467;28;20390;-78
2023/02/24 05:31:22;;;;;;;25.13;6.00;;;5.50;63.20;;;;;;5035004;28;20403;-79
2023/02/24 05:33:53;;;;;;;25.73;7.30;;;5.60;64.20;;;;;;5045151;28;20393;-80
2023/02/24 05:36:20;;;;;;;22.43;6.30;;;5.60;66.10;;;;;;5058631;28;20382;-81
2023/02/24 05:38:47;;;;;;;23.52;6.78;;;5.60;65.90;;;;;;5058197;28;20439;-81
2023/02/24 05:41:16;;;;;;;18.47;4.87;;;5.50;69.90;;;;;;5041722;28;20444;-77
2023/02/24 05:43:54;;;;;;;26.85;6.10;;;5.80;62.70;;;;;;5058026;28;20390;-82
2023/02/24 05:46:26;;;;;;;26.47;5.50;;;5.70;63.70;;;;;;5040615;28;20389;-82
2023/02/24 05:48:55;;;;;;;17.50;5.57;;;5.50;66.90;;;;;;5041327;28;20442;-81
2023/02/24 05:51:23;;;;;;;28.45;6.55;;;5.40;70.50;;;;;;5059432;28;20397;-81
2023/02/24 05:53:54;;;;;;;25.05;6.40;;;5.40;72.40;;;;;;5073510;28;20425;-78
2023/02/24 05:56:21;;;;;;;32.70;7.38;;;5.50;71.40;;;;;;5077135;28;20380;-79
2023/02/24 05:58:48;;;;;;;23.60;5.93;;;5.60;70.50;;;;;;5066112;28;20660;-80
2023/02/24 06:01:15;;;;;;;21.85;6.22;;;5.70;66.90;;;;;;5047011;28;20461;-79
2023/02/24 06:03:48;;;;;;;19.00;5.57;;;5.70;66.90;;;;;;5075309;28;20378;-79
2023/02/24 06:06:16;;;;;;;29.33;6.82;;;5.60;65.90;;;;;;5076756;28;20928;-80
2023/02/24 06:08:49;;;;;;;21.83;6.47;;;5.60;66.20;;;;;;5077091;28;20382;-80
2023/02/24 06:11:17;;;;;;;23.48;6.50;;;5.70;67.00;;;;;;5076885;28;20402;-80
2023/02/24 06:13:47;;;;;;;26.23;6.97;;;5.80;66.90;;;;;;5076522;28;20415;-80
2023/02/24 06:16:17;;;;;;;28.35;7.57;;;5.70;66.90;;;;;;5076476;28;20401;-80
2023/02/24 06:18:46;;;;;;;22.73;6.97;;;5.60;68.70;;;;;;5059215;28;20411;-79
2023/02/24 06:21:12;;;;;;;30.15;7.15;;;5.70;66.90;;;;;;5076087;28;20380;-79
2023/02/24 06:23:38;;;;;;;25.40;6.10;;;5.70;68.70;;;;;;5058591;22;20458;-75
2023/02/24 06:26:11;;;;;;;28.48;8.05;;;5.70;65.10;;;;;;5035960;28;20415;-76
2023/02/24 06:28:42;;;;;;;29.83;8.55;;;5.60;68.00;;;;;;5032834;28;20386;-76
2023/02/24 06:31:09;;;;;;;33.30;7.20;;;5.60;70.10;;;;;;5031642;28;20512;-76
2023/02/24 06:33:39;;;;;;;26.40;6.57;;;5.60;71.30;;;;;;5032387;28;20391;-75
2023/02/24 06:36:05;;;;;;;26.10;6.82;;;5.60;68.80;;;;;;5031657;28;20468;-75
2023/02/24 06:38:33;;;;;;;24.67;7.68;;;5.60;68.20;;;;;;5031744;28;20779;-76
2023/02/24 06:41:02;;;;;;;30.85;7.45;;;5.70;66.90;;;;;;5032544;28;20391;-75
2023/02/24 06:43:29;;;;;;;31.83;7.00;;;5.90;64.30;;;;;;5028341;28;20414;-75
2023/02/24 06:45:54;;;;;;;24.48;6.75;;;5.90;64.80;;;;;;5029557;28;20407;-75
2023/02/24 06:48:21;;;;;;;34.27;6.47;;;5.90;62.80;;;;;;5029989;28;20752;-75
2023/02/24 06:50:48;;;;;;;27.63;6.30;;;5.80;65.60;;;;;;5029354;28;20402;-73
2023/02/24 06:53:15;;;;;;;31.13;6.75;;;5.90;64.30;;;;;;5029042;28;20442;-73
2023/02/24 06:55:45;;;;;;;24.52;6.70;;;5.80;62.40;;;;;;5030147;28;20391;-75
2023/02/24 06:58:16;;;;;;;29.35;6.55;;;5.80;63.90;;;;;;5028914;28;20819;-75
2023/02/24 07:00:45;;;;;;;38.00;8.23;;;5.90;60.60;;;;;;5027349;28;20469;-74
2023/02/24 07:03:15;;;;;;;24.13;7.32;;;5.80;62.10;;;;;;5027569;28;20477;-74
2023/02/24 07:05:49;;;;;;;29.20;9.75;;;5.90;60.80;;;;;;5029001;28;20406;-74
2023/02/24 07:08:21;;;;;;;27.20;8.48;;;5.90;60.70;;;;;;5032422;28;20439;-74
2023/02/24 07:10:58;;;;;;;23.17;8.10;;;6.00;59.30;;;;;;5036274;28;20416;-73
2023/02/24 07:13:28;;;;;;;26.75;6.57;;;6.00;57.00;;;;;;5036387;28;20448;-75
2023/02/24 07:15:54;;;;;;;25.58;7.55;;;6.00;56.20;;;;;;5036951;28;20898;-74
2023/02/24 07:18:21;;;;;;;27.57;8.43;;;6.00;58.50;;;;;;5029713;28;20490;-75
2023/02/24 07:20:47;;;;;;;23.63;7.57;;;5.90;60.40;;;;;;5029261;28;20939;-75
2023/02/24 07:23:14;;;;;;;22.10;6.30;;;6.00;56.40;;;;;;5028924;28;20403;-75
2023/02/24 07:25:42;;;;;;;21.42;5.90;;;6.10;51.20;;;;;;5028903;28;20410;-78
2023/02/24 07:28:13;;;;;;;23.73;7.60;;;6.20;50.40;;;;;;5025565;28;20411;-76
2023/02/24 07:30:40;;;;;;;29.63;8.55;;;6.20;50.90;;;;;;5009139;28;21162;-77
2023/02/24 07:33:07;;;;;;;24.65;7.32;;;6.30;51.40;;;;;;5030079;28;20560;-75
2023/02/24 07:35:34;;;;;;;24.48;7.90;;;6.30;51.80;;;;;;5028944;28;20406;-76
2023/02/24 07:38:03;;;;;;;25.65;7.30;;;6.20;52.30;;;;;;5024489;28;20393;-75
2023/02/24 07:40:32;;;;;;;21.65;6.70;;;6.30;52.00;;;;;;5028851;28;20398;-75
2023/02/24 07:42:59;;;;;;;26.13;8.23;;;6.40;50.10;;;;;;5028864;28;20464;-75
2023/02/24 07:45:25;;;;;;;22.67;6.70;;;6.40;49.80;;;;;;5044816;28;20802;-76
2023/02/24 07:47:51;;;;;;;21.70;6.97;;;6.50;47.70;;;;;;5030608;28;20394;-76
2023/02/24 07:50:17;;;;;;;25.97;6.67;;;6.50;48.10;;;;;;5029600;28;20394;-75
2023/02/24 07:52:50;;;;;;;17.98;5.57;;;6.40;48.90;;;;;;5030257;28;20397;-77
2023/02/24 07:55:16;;;;;;;27.75;6.60;;;6.40;49.30;;;;;;5028963;28;20382;-76
2023/02/24 07:57:45;;;;;;;28.75;7.30;;;6.50;49.20;;;;;;5030250;28;20393;-76
2023/02/24 08:00:17;;;;;;;20.67;5.80;;;6.60;48.40;;;;;;5030986;28;20801;-76
2023/02/24 08:02:44;;;;;;;25.40;7.10;;;6.60;45.80;;;;;;5031918;28;20406;-77
2023/02/24 08:05:09;;;;;;;23.27;7.00;;;6.70;46.00;;;;;;5030990;28;20386;-76
2023/02/24 08:07:35;;;;;;;27.10;6.68;;;6.70;45.20;;;;;;5046250;28;20437;-77
2023/02/24 08:10:12;;;;;;;21.30;6.35;;;6.70;44.70;;;;;;5030858;28;20391;-76
2023/02/24 08:12:41;;;;;;;24.38;6.72;;;6.70;44.60;;;;;;5030588;28;20392;-75
2023/02/24 08:15:15;;;;;;;20.98;7.22;;;6.60;46.50;;;;;;5032703;28;20406;-75
2023/02/24 08:17:43;;;;;;;24.83;6.82;;;6.70;46.20;;;;;;5031867;28;20375;-76
2023/02/24 08:22:45;;;;;;;24.30;7.70;;;6.70;46.60;;;;;;5034980;28;20408;-77
2023/02/24 08:25:21;;;;;;;27.60;7.10;;;6.80;46.90;;;;;;5047981;28;20437;-75
2023/02/24 08:27:54;;;;;;;31.38;6.80;;;6.80;46.30;;;;;;5051024;28;20398;-75
2023/02/24 08:30:28;;;;;;;21.90;6.63;;;7.00;43.90;;;;;;5046938;28;20385;-76
2023/02/24 08:32:55;;;;;;;21.10;7.57;;;6.80;42.50;;;;;;5043919;28;20413;-75
2023/02/24 08:35:24;;;;;;;26.60;7.40;;;6.70;45.80;;;;;;5044085;28;20382;-75
2023/02/24 08:37:54;;;;;;;25.77;7.20;;;6.70;46.50;;;;;;5060567;28;20865;-75
2023/02/24 08:43:16;;;;;;;24.90;7.23;;;6.80;46.10;;;;;;5045361;28;20400;-75
2023/02/24 08:45:49;;;;;;;17.83;6.13;;;7.00;43.20;;;;;;5045297;28;20424;-75
2023/02/24 08:48:17;;;;;;;20.65;6.03;;;7.10;40.60;;;;;;5045488;28;20496;-75
2023/02/24 08:50:46;;;;;;;23.73;6.80;;;7.30;37.10;;;;;;5048530;28;20410;-76
2023/02/24 08:53:17;;;;;;;24.23;6.50;;;7.20;37.20;;;;;;5046628;28;20385;-74
2023/02/24 08:55:44;;;;;;;22.33;6.00;;;7.10;38.80;;;;;;5050358;28;20459;-75
2023/02/24 08:58:16;;;;;;;19.42;5.72;;;7.10;38.10;;;;;;5042648;28;20985;-74
2023/02/24 09:00:48;;;;;;;19.02;5.40;;;7.00;37.70;;;;;;5047089;28;20394;-76
2023/02/24 09:03:28;;;;;;;16.90;5.85;;;7.00;37.70;;;;;;5042145;28;20390;-76
2023/02/24 09:05:59;;;;;;;22.38;5.10;;;7.00;38.30;;;;;;5034206;28;20424;-75
2023/02/24 09:08:31;;;;;;;17.55;5.18;;;7.00;35.70;;;;;;5038012;28;20394;-74
2023/02/24 09:11:06;;;;;;;23.02;5.07;;;7.10;37.20;;;;;;5039458;28;20422;-74
2023/02/24 09:13:56;;;;;;;24.33;5.78;;;7.10;35.90;;;;;;5043072;28;20387;-74
2023/02/24 09:16:23;;;;;;;26.38;5.90;;;7.10;35.90;;;;;;5040955;28;20390;-74
2023/02/24 09:24:11;;;;;;;19.85;4.93;;;7.20;35.50;;;;;;5028687;28;20423;-75
2023/02/24 09:26:43;;;;;;;19.90;5.10;;;7.30;34.80;;;;;;5033322;28;20383;-75
2023/02/24 09:32:04;;;;;;;15.82;4.40;;;7.30;35.40;;;;;;5017914;28;20435;-82
2023/02/24 09:34:34;;;;;;;19.58;4.30;;;7.40;32.80;;;;;;5021976;28;20431;-80
2023/02/24 09:37:01;;;;;;;21.60;4.55;;;7.30;31.50;;;;;;5035544;28;20408;-79
2023/02/24 09:44:51;;;;;;;18.35;5.00;;;7.20;33.20;;;;;;5030998;28;20391;-71
2023/02/24 09:50:29;;;;;;;13.23;4.60;;;7.40;33.60;;;;;;5008763;28;20427;-75
2023/02/24 09:53:12;;;;;;;21.10;5.50;;;7.50;32.30;;;;;;5008207;28;20897;-76
2023/02/24 09:55:59;;;;;;;16.85;4.50;;;7.40;31.60;;;;;;5010689;28;20405;-75
2023/02/24 09:58:57;;;;;;;18.95;5.50;;;7.40;31.70;;;;;;5024218;28;20391;-77
2023/02/24 10:01:32;;;;;;;17.23;5.20;;;7.40;31.70;;;;;;5035554;28;20496;-73
2023/02/24 10:04:22;;;;;;;19.92;5.00;;;7.40;31.80;;;;;;5033266;28;20883;-75
2023/02/24 10:06:51;;;;;;;17.13;4.13;;;7.30;32.40;;;;;;5033880;28;20803;-76
2023/02/24 10:09:33;;;;;;;19.98;4.80;;;7.40;30.80;;;;;;5023283;28;20389;-75
2023/02/24 10:12:15;;;;;;;20.73;4.60;;;7.50;31.20;;;;;;5013437;28;20420;-73
2023/02/24 10:15:18;;;;;;;16.13;3.50;;;7.50;30.60;;;;;;5028886;28;20662;-73
2023/02/24 10:17:58;;;;;;;18.98;4.10;;;7.40;31.00;;;;;;5031246;28;20545;-70
2023/02/24 10:20:38;;;;;;;18.83;4.43;;;7.40;30.70;;;;;;5031207;28;20391;-71
2023/02/24 10:23:14;;;;;;;20.88;4.45;;;7.30;31.60;;;;;;5030091;28;20402;-74
2023/02/24 10:25:53;;;;;;;16.80;5.20;;;7.40;31.50;;;;;;5033580;28;20493;-75
2023/02/24 10:28:44;;;;;;;15.40;3.95;;;7.30;31.90;;;;;;5028851;28;20399;-74
2023/02/24 10:31:44;;;;;;;14.93;3.60;;;7.30;31.70;;;;;;5030978;28;20402;-74
2023/02/24 10:34:18;;;;;;;20.42;4.75;;;7.40;31.40;;;;;;5021685;28;20394;-74
2023/02/24 10:36:49;;;;;;;17.33;4.60;;;7.20;32.80;;;;;;5032763;28;20401;-74
2023/02/24 10:39:19;;;;;;;19.92;4.53;;;7.20;33.20;;;;;;5032857;28;20759;-75
2023/02/24 10:41:55;;;;;;;18.60;4.82;;;7.20;33.20;;;;;;5033493;28;20394;-74
2023/02/24 10:44:23;;;;;;;15.05;5.03;;;7.30;32.90;;;;;;5035201;28;20392;-74
2023/02/24 10:47:10;;;;;;;17.70;5.60;;;7.20;33.80;;;;;;5033382;28;20981;-75
2023/02/24 10:49:58;;;;;;;25.13;6.55;;;7.10;34.70;;;;;;5033304;28;20890;-74
2023/02/24 10:55:38;;;;;;;23.13;5.43;;;7.00;36.40;;;;;;5033549;28;20424;-74
2023/02/24 10:58:05;;;;;;;24.50;5.50;;;7.00;36.10;;;;;;5030340;28;20391;-74
2023/02/24 11:03:34;;;;;;;21.35;5.78;;;6.90;38.80;;;;;;5031588;28;20402;-73
2023/02/24 11:08:38;;;;;;;18.50;5.53;;;6.90;39.70;;;;;;5031686;28;20398;-73
2023/02/24 11:11:28;;;;;;;16.73;6.35;;;6.90;38.50;;;;;;5030996;28;20445;-74
2023/02/24 11:19:41;;;;;;;18.80;5.95;;;6.80;42.50;;;;;;5031173;28;20419;-74
2023/02/24 11:22:13;;;;;;;24.98;5.15;;;6.80;41.70;;;;;;5031095;28;20427;-74
2023/02/24 11:24:39;;;;;;;22.75;6.50;;;6.70;44.00;;;;;;5031212;28;20399;-75
2023/02/24 11:27:06;;;;;;;24.27;5.88;;;6.70;46.30;;;;;;5031512;28;20395;-76
2023/02/24 11:29:40;;;;;;;20.42;5.80;;;6.60;47.30;;;;;;5032465;28;20402;-75
2023/02/24 11:32:41;;;;;;;17.58;6.30;;;6.60;48.00;;;;;;5031968;28;20476;-74
2023/02/24 11:35:26;;;;;;;22.40;6.10;;;6.50;49.70;;;;;;5030938;28;20470;-75
2023/02/24 11:38:31;;;;;;;19.43;6.40;;;6.40;48.10;;;;;;5030639;28;20423;-74
2023/02/24 11:41:09;;;;;;;19.63;6.22;;;6.30;55.40;;;;;;5030853;28;20394;-74
2023/02/24 11:43:40;;;;;;;16.67;5.90;;;6.30;55.00;;;;;;5030337;28;20418;-73
2023/02/24 11:46:14;;;;;;;21.00;6.53;;;6.50;51.20;;;;;;5032375;28;20470;-75
2023/02/24 11:48:46;;;;;;;24.17;6.55;;;6.50;51.50;;;;;;5029255;28;20395;-74
2023/02/24 11:51:28;;;;;;;19.80;5.57;;;6.40;53.60;;;;;;5030314;28;20493;-74
2023/02/24 11:53:59;;;;;;;18.48;5.30;;;6.20;56.00;;;;;;5032218;28;20391;-74
2023/02/24 11:56:29;;;;;;;19.73;5.55;;;6.20;55.20;;;;;;5034676;28;20509;-74
2023/02/24 11:59:05;;;;;;;23.77;6.10;;;6.20;58.00;;;;;;5035491;28;20879;-73
2023/02/24 12:01:35;;;;;;;17.77;6.18;;;6.20;57.50;;;;;;5034983;28;20391;-74
2023/02/24 12:04:26;;;;;;;19.75;6.43;;;6.20;56.20;;;;;;5034620;28;20855;-74
2023/02/24 12:07:23;;;;;;;21.90;6.70;;;6.20;59.30;;;;;;5035301;28;20386;-74
2023/02/24 12:09:54;;;;;;;18.70;5.60;;;6.20;58.90;;;;;;5034342;28;20514;-75
2023/02/24 12:12:26;;;;;;;19.17;5.50;;;6.30;59.30;;;;;;5034233;28;20440;-74
2023/02/24 12:14:56;;;;;;;19.77;6.00;;;6.30;55.00;;;;;;5034012;28;20402;-74
2023/02/24 12:17:37;;;;;;;24.45;6.90;;;6.30;56.10;;;;;;5034528;28;20442;-77
2023/02/24 12:20:26;;;;;;;21.33;5.38;;;6.20;58.60;;;;;;5022490;28;20392;-74
2023/02/24 12:22:56;;;;;;;24.13;5.80;;;6.30;56.40;;;;;;5015142;28;20442;-74
2023/02/24 12:25:29;;;;;;;14.13;5.80;;;6.30;57.70;;;;;;5024204;28;20414;-74
2023/02/24 12:27:55;;;;;;;14.18;5.47;;;6.30;57.10;;;;;;5035288;28;20386;-75
2023/02/24 12:30:49;;;;;;;21.63;5.38;;;6.20;58.30;;;;;;5038578;28;20411;-75
2023/02/24 12:33:15;;;;;;;25.83;6.40;;;6.10;60.10;;;;;;5031522;28;20415;-75
2023/02/24 12:35:53;;;;;;;25.23;6.55;;;6.20;57.80;;;;;;5040241;28;20455;-75
2023/02/24 12:38:49;;;;;;;23.42;5.97;;;6.20;59.30;;;;;;5038677;28;20445;-74
2023/02/24 12:41:56;;;;;;;21.83;5.70;;;6.20;61.50;;;;;;5050433;28;20375;-72
2023/02/24 12:44:33;;;;;;;18.23;6.13;;;6.20;60.90;;;;;;5043793;28;20915;-74
2023/02/24 12:47:36;;;;;;;20.98;6.30;;;6.20;59.50;;;;;;5030852;28;20405;-74
2023/02/24 12:50:07;;;;;;;22.15;7.53;;;6.20;58.60;;;;;;5032855;28;20395;-76
2023/02/24 12:52:37;;;;;;;25.35;7.50;;;6.10;63.50;;;;;;5030227;28;20422;-74
2023/02/24 12:55:26;;;;;;;20.83;7.00;;;6.20;63.40;;;;;;5031371;28;20843;-75
2023/02/24 12:58:06;;;;;;;21.05;6.65;;;6.20;62.20;;;;;;5032228;28;20756;-75
2023/02/24 13:00:58;;;;;;;21.38;7.22;;;6.20;63.00;;;;;;5032752;28;21197;-74
2023/02/24 13:03:48;;;;;;;19.52;7.80;;;6.20;63.70;;;;;;5032621;28;20458;-74
2023/02/24 13:06:37;;;;;;;18.65;6.28;;;6.30;64.30;;;;;;5032006;28;20395;-74
2023/02/24 13:09:31;;;;;;;19.50;7.37;;;6.30;60.10;;;;;;5031863;28;20408;-74
2023/02/24 13:12:01;;;;;;;25.83;7.38;;;6.30;63.40;;;;;;5030360;28;20505;-76
2023/02/24 13:14:33;;;;;;;24.13;8.50;;;6.30;64.30;;;;;;5031782;28;20381;-75
2023/02/24 13:17:20;;;;;;;27.63;8.20;;;6.20;66.50;;;;;;5031533;28;20911;-75
2023/02/24 13:19:47;;;;;;;25.13;7.70;;;6.30;67.40;;;;;;5033462;28;20379;-73
2023/02/24 13:22:14;;;;;;;20.45;6.60;;;6.40;68.70;;;;;;5033243;28;20407;-75
2023/02/24 13:25:03;;;;;;;24.42;7.90;;;6.40;65.40;;;;;;5033146;28;20486;-75
2023/02/24 13:27:35;;;;;;;21.20;6.22;;;6.50;64.40;;;;;;5033849;28;20440;-75
2023/02/24 13:30:10;;;;;;;22.15;6.50;;;6.50;61.20;;;;;;5048903;28;20432;-74
2023/02/24 13:32:41;;;;;;;24.10;7.50;;;6.40;62.10;;;;;;5032071;28;20514;-75
2023/02/24 13:35:12;;;;;;;25.13;7.60;;;6.20;64.70;;;;;;5033430;28;20860;-75
2023/02/24 13:37:40;;;;;;;23.58;8.38;;;6.20;66.10;;;;;;5032635;28;20387;-73
2023/02/24 13:40:22;;;;;;;24.70;7.20;;;6.20;69.20;;;;;;5032959;28;20474;-74
2023/02/24 13:42:57;;;;;;;26.42;8.23;;;6.20;69.00;;;;;;5033111;28;20387;-74
2023/02/24 13:45:26;;;;;;;20.92;7.97;;;6.30;68.10;;;;;;5031255;28;20406;-74
2023/02/24 13:48:19;;;;;;;22.88;9.07;;;6.30;69.60;;;;;;5033091;28;20446;-74
2023/02/24 13:51:03;;;;;;;31.40;9.18;;;6.40;69.00;;;;;;5034966;28;20445;-76
2023/02/24 13:53:58;;;;;;;23.42;7.20;;;6.40;71.50;;;;;;5033189;28;20383;-75
2023/02/24 13:56:45;;;;;;;19.23;7.80;;;6.50;71.10;;;;;;5032859;28;20391;-73
2023/02/24 13:59:23;;;;;;;22.98;7.63;;;6.50;67.50;;;;;;5033741;28;20415;-75
2023/02/24 14:02:00;;;;;;;22.45;7.60;;;6.50;66.00;;;;;;5033105;28;20918;-75
2023/02/24 14:04:31;;;;;;;28.15;8.40;;;6.40;70.30;;;;;;5032332;28;20391;-73